sensor_id;sensor_type;location;lat;lon;timestamp;P1;durP1;ratioP1;P2;durP2;ratioP2
24743;SDS011;12844;52.110;5.548;2022-12-18T00:01:49;15.88;;;11.35;;
24743;SDS011;12844;52.110;5.548;2022-12-18T00:04:18;14.30;;;10.50;;
24743;SDS011;12844;52.110;5.548;2022-12-18T00:06:47;16.38;;;11.77;;
24743;SDS011;12844;52.110;5.548;2022-12-18T00:09:12;15.07;;;11.00;;
24743;SDS011;12844;52.110;5.548;2022-12-18T00:11:38;14.23;;;10.60;;
24743;SDS011;12844;52.110;5.548;2022-12-18T00:14:04;15.40;;;11.95;;
24743;SDS011;12844;52.110;5.548;2022-12-18T00:16:29;14.63;;;11.52;;
24743;SDS011;12844;52.110;5.548;2022-12-18T00:18:57;15.02;;;11.00;;
24743;SDS011;12844;52.110;5.548;2022-12-18T00:21:23;15.77;;;11.30;;
24743;SDS011;12844;52.110;5.548;2022-12-18T00:23:49;15.60;;;11.07;;
24743;SDS011;12844;52.110;5.548;2022-12-18T00:26:22;15.68;;;11.65;;
24743;SDS011;12844;52.110;5.548;2022-12-18T00:28:50;15.68;;;11.57;;
24743;SDS011;12844;52.110;5.548;2022-12-18T00:31:18;14.70;;;11.50;;
24743;SDS011;12844;52.110;5.548;2022-12-18T00:33:45;14.07;;;11.13;;
24743;SDS011;12844;52.110;5.548;2022-12-18T00:38:42;15.55;;;11.50;;
24743;SDS011;12844;52.110;5.548;2022-12-18T00:41:08;15.98;;;11.07;;
24743;SDS011;12844;52.110;5.548;2022-12-18T00:43:35;16.30;;;11.38;;
24743;SDS011;12844;52.110;5.548;2022-12-18T00:46:01;15.70;;;11.80;;
24743;SDS011;12844;52.110;5.548;2022-12-18T00:48:27;16.77;;;11.95;;
24743;SDS011;12844;52.110;5.548;2022-12-18T00:50:53;15.20;;;11.90;;
24743;SDS011;12844;52.110;5.548;2022-12-18T00:53:18;17.63;;;11.70;;
24743;SDS011;12844;52.110;5.548;2022-12-18T00:55:44;16.77;;;12.30;;
24743;SDS011;12844;52.110;5.548;2022-12-18T00:58:10;15.10;;;11.77;;
24743;SDS011;12844;52.110;5.548;2022-12-18T01:00:37;15.20;;;11.60;;
24743;SDS011;12844;52.110;5.548;2022-12-18T01:03:03;14.02;;;11.30;;
24743;SDS011;12844;52.110;5.548;2022-12-18T01:05:29;15.95;;;11.85;;
24743;SDS011;12844;52.110;5.548;2022-12-18T01:07:55;15.48;;;11.55;;
24743;SDS011;12844;52.110;5.548;2022-12-18T01:10:21;17.10;;;12.25;;
24743;SDS011;12844;52.110;5.548;2022-12-18T01:12:47;16.48;;;12.20;;
24743;SDS011;12844;52.110;5.548;2022-12-18T01:15:14;16.67;;;11.85;;
24743;SDS011;12844;52.110;5.548;2022-12-18T01:17:40;16.25;;;12.10;;
24743;SDS011;12844;52.110;5.548;2022-12-18T01:20:06;15.30;;;11.75;;
24743;SDS011;12844;52.110;5.548;2022-12-18T01:22:33;16.05;;;11.80;;
24743;SDS011;12844;52.110;5.548;2022-12-18T01:24:59;15.38;;;12.02;;
24743;SDS011;12844;52.110;5.548;2022-12-18T01:27:24;15.75;;;12.07;;
24743;SDS011;12844;52.110;5.548;2022-12-18T01:29:50;15.38;;;11.77;;
24743;SDS011;12844;52.110;5.548;2022-12-18T01:32:16;15.68;;;11.68;;
24743;SDS011;12844;52.110;5.548;2022-12-18T01:34:41;16.42;;;11.73;;
24743;SDS011;12844;52.110;5.548;2022-12-18T01:37:07;17.17;;;12.13;;
24743;SDS011;12844;52.110;5.548;2022-12-18T01:39:33;17.52;;;12.25;;
24743;SDS011;12844;52.110;5.548;2022-12-18T01:41:59;16.88;;;12.18;;
24743;SDS011;12844;52.110;5.548;2022-12-18T01:47:37;18.02;;;12.98;;
24743;SDS011;12844;52.110;5.548;2022-12-18T01:50:07;17.15;;;11.82;;
24743;SDS011;12844;52.110;5.548;2022-12-18T01:52:48;17.13;;;12.07;;
24743;SDS011;12844;52.110;5.548;2022-12-18T01:55:18;17.75;;;11.73;;
24743;SDS011;12844;52.110;5.548;2022-12-18T01:57:47;16.63;;;12.10;;
24743;SDS011;12844;52.110;5.548;2022-12-18T02:00:14;16.17;;;12.45;;
24743;SDS011;12844;52.110;5.548;2022-12-18T02:02:45;16.15;;;12.35;;
24743;SDS011;12844;52.110;5.548;2022-12-18T02:05:12;16.50;;;12.48;;
24743;SDS011;12844;52.110;5.548;2022-12-18T02:10:27;16.80;;;12.10;;
24743;SDS011;12844;52.110;5.548;2022-12-18T02:13:06;15.40;;;11.57;;
24743;SDS011;12844;52.110;5.548;2022-12-18T02:18:17;18.55;;;13.27;;
24743;SDS011;12844;52.110;5.548;2022-12-18T02:20:59;16.15;;;12.90;;
24743;SDS011;12844;52.110;5.548;2022-12-18T02:26:44;16.50;;;11.98;;
24743;SDS011;12844;52.110;5.548;2022-12-18T02:29:28;16.88;;;12.20;;
24743;SDS011;12844;52.110;5.548;2022-12-18T02:31:59;17.23;;;12.48;;
24743;SDS011;12844;52.110;5.548;2022-12-18T02:34:28;15.27;;;11.93;;
24743;SDS011;12844;52.110;5.548;2022-12-18T02:36:56;15.48;;;11.82;;
24743;SDS011;12844;52.110;5.548;2022-12-18T02:39:25;15.32;;;11.52;;
24743;SDS011;12844;52.110;5.548;2022-12-18T02:41:52;16.50;;;11.75;;
24743;SDS011;12844;52.110;5.548;2022-12-18T02:44:18;14.48;;;11.57;;
24743;SDS011;12844;52.110;5.548;2022-12-18T02:46:49;14.88;;;11.07;;
24743;SDS011;12844;52.110;5.548;2022-12-18T02:49:36;14.80;;;11.13;;
24743;SDS011;12844;52.110;5.548;2022-12-18T02:52:17;13.38;;;10.82;;
24743;SDS011;12844;52.110;5.548;2022-12-18T03:00:21;14.50;;;10.68;;
24743;SDS011;12844;52.110;5.548;2022-12-18T03:02:55;14.00;;;10.73;;
24743;SDS011;12844;52.110;5.548;2022-12-18T03:07:53;13.98;;;11.15;;
24743;SDS011;12844;52.110;5.548;2022-12-18T03:10:23;13.02;;;10.82;;
24743;SDS011;12844;52.110;5.548;2022-12-18T03:12:52;13.02;;;10.73;;
24743;SDS011;12844;52.110;5.548;2022-12-18T03:15:27;13.63;;;10.73;;
24743;SDS011;12844;52.110;5.548;2022-12-18T03:17:59;14.52;;;11.35;;
24743;SDS011;12844;52.110;5.548;2022-12-18T03:20:28;13.20;;;10.55;;
24743;SDS011;12844;52.110;5.548;2022-12-18T03:22:58;14.60;;;10.70;;
24743;SDS011;12844;52.110;5.548;2022-12-18T03:25:34;13.57;;;10.27;;
24743;SDS011;12844;52.110;5.548;2022-12-18T03:28:03;12.82;;;10.48;;
24743;SDS011;12844;52.110;5.548;2022-12-18T03:30:33;14.85;;;10.60;;
24743;SDS011;12844;52.110;5.548;2022-12-18T03:33:24;13.48;;;10.23;;
24743;SDS011;12844;52.110;5.548;2022-12-18T03:35:53;13.38;;;10.60;;
24743;SDS011;12844;52.110;5.548;2022-12-18T03:38:18;12.43;;;10.30;;
24743;SDS011;12844;52.110;5.548;2022-12-18T03:40:47;13.23;;;10.55;;
24743;SDS011;12844;52.110;5.548;2022-12-18T03:43:51;14.88;;;10.60;;
24743;SDS011;12844;52.110;5.548;2022-12-18T03:46:30;13.30;;;10.45;;
24743;SDS011;12844;52.110;5.548;2022-12-18T03:49:03;12.73;;;10.25;;
24743;SDS011;12844;52.110;5.548;2022-12-18T03:51:44;13.10;;;10.35;;
24743;SDS011;12844;52.110;5.548;2022-12-18T03:54:19;13.43;;;10.50;;
24743;SDS011;12844;52.110;5.548;2022-12-18T03:56:47;14.32;;;10.73;;
24743;SDS011;12844;52.110;5.548;2022-12-18T03:59:19;12.05;;;10.15;;
24743;SDS011;12844;52.110;5.548;2022-12-18T04:01:46;11.23;;;9.73;;
24743;SDS011;12844;52.110;5.548;2022-12-18T04:04:14;14.05;;;11.00;;
24743;SDS011;12844;52.110;5.548;2022-12-18T04:06:42;14.15;;;10.73;;
24743;SDS011;12844;52.110;5.548;2022-12-18T04:09:10;13.30;;;10.70;;
24743;SDS011;12844;52.110;5.548;2022-12-18T04:11:35;12.30;;;10.23;;
24743;SDS011;12844;52.110;5.548;2022-12-18T04:14:01;13.73;;;10.57;;
24743;SDS011;12844;52.110;5.548;2022-12-18T04:16:27;13.65;;;11.02;;
24743;SDS011;12844;52.110;5.548;2022-12-18T04:18:53;13.10;;;10.52;;
24743;SDS011;12844;52.110;5.548;2022-12-18T04:21:19;12.07;;;10.77;;
24743;SDS011;12844;52.110;5.548;2022-12-18T04:23:45;12.65;;;10.63;;
24743;SDS011;12844;52.110;5.548;2022-12-18T04:26:10;12.73;;;10.23;;
24743;SDS011;12844;52.110;5.548;2022-12-18T04:28:36;13.10;;;10.70;;
24743;SDS011;12844;52.110;5.548;2022-12-18T04:31:02;12.82;;;10.35;;
24743;SDS011;12844;52.110;5.548;2022-12-18T04:33:27;13.20;;;9.95;;
24743;SDS011;12844;52.110;5.548;2022-12-18T04:35:53;12.75;;;10.57;;
24743;SDS011;12844;52.110;5.548;2022-12-18T04:38:18;11.90;;;9.75;;
24743;SDS011;12844;52.110;5.548;2022-12-18T04:40:44;12.77;;;10.10;;
24743;SDS011;12844;52.110;5.548;2022-12-18T04:43:09;12.95;;;10.20;;
24743;SDS011;12844;52.110;5.548;2022-12-18T04:45:35;12.23;;;9.80;;
24743;SDS011;12844;52.110;5.548;2022-12-18T04:48:01;12.23;;;9.95;;
24743;SDS011;12844;52.110;5.548;2022-12-18T04:50:28;11.95;;;9.90;;
24743;SDS011;12844;52.110;5.548;2022-12-18T04:52:54;12.70;;;10.07;;
24743;SDS011;12844;52.110;5.548;2022-12-18T04:55:20;12.23;;;10.25;;
24743;SDS011;12844;52.110;5.548;2022-12-18T04:57:45;12.57;;;10.32;;
24743;SDS011;12844;52.110;5.548;2022-12-18T05:00:11;12.20;;;9.77;;
24743;SDS011;12844;52.110;5.548;2022-12-18T05:02:37;11.82;;;9.50;;
24743;SDS011;12844;52.110;5.548;2022-12-18T05:05:03;11.60;;;9.50;;
24743;SDS011;12844;52.110;5.548;2022-12-18T05:07:29;11.73;;;9.25;;
24743;SDS011;12844;52.110;5.548;2022-12-18T05:09:55;11.48;;;9.10;;
24743;SDS011;12844;52.110;5.548;2022-12-18T05:12:20;10.63;;;8.85;;
24743;SDS011;12844;52.110;5.548;2022-12-18T05:14:49;11.27;;;9.35;;
24743;SDS011;12844;52.110;5.548;2022-12-18T05:17:15;11.80;;;8.82;;
24743;SDS011;12844;52.110;5.548;2022-12-18T05:19:40;11.02;;;8.45;;
24743;SDS011;12844;52.110;5.548;2022-12-18T05:22:06;10.18;;;8.55;;
24743;SDS011;12844;52.110;5.548;2022-12-18T05:24:32;9.55;;;8.40;;
24743;SDS011;12844;52.110;5.548;2022-12-18T05:26:57;10.70;;;8.40;;
24743;SDS011;12844;52.110;5.548;2022-12-18T05:29:23;11.32;;;9.10;;
24743;SDS011;12844;52.110;5.548;2022-12-18T05:31:48;10.15;;;8.45;;
24743;SDS011;12844;52.110;5.548;2022-12-18T05:34:14;11.32;;;8.98;;
24743;SDS011;12844;52.110;5.548;2022-12-18T05:36:40;10.80;;;8.55;;
24743;SDS011;12844;52.110;5.548;2022-12-18T05:39:05;10.70;;;8.68;;
24743;SDS011;12844;52.110;5.548;2022-12-18T05:41:31;9.95;;;8.20;;
24743;SDS011;12844;52.110;5.548;2022-12-18T05:43:57;9.55;;;8.18;;
24743;SDS011;12844;52.110;5.548;2022-12-18T05:46:23;10.65;;;7.88;;
24743;SDS011;12844;52.110;5.548;2022-12-18T05:48:49;10.00;;;8.32;;
24743;SDS011;12844;52.110;5.548;2022-12-18T05:51:17;8.95;;;8.00;;
24743;SDS011;12844;52.110;5.548;2022-12-18T05:53:45;9.75;;;8.35;;
24743;SDS011;12844;52.110;5.548;2022-12-18T05:56:12;9.93;;;8.27;;
24743;SDS011;12844;52.110;5.548;2022-12-18T05:58:40;10.50;;;8.57;;
24743;SDS011;12844;52.110;5.548;2022-12-18T06:01:06;10.18;;;8.30;;
24743;SDS011;12844;52.110;5.548;2022-12-18T06:03:37;10.07;;;8.27;;
24743;SDS011;12844;52.110;5.548;2022-12-18T06:06:02;9.60;;;8.20;;
24743;SDS011;12844;52.110;5.548;2022-12-18T06:08:28;9.25;;;7.85;;
24743;SDS011;12844;52.110;5.548;2022-12-18T06:10:53;9.82;;;8.60;;
24743;SDS011;12844;52.110;5.548;2022-12-18T06:13:19;9.35;;;7.90;;
24743;SDS011;12844;52.110;5.548;2022-12-18T06:15:45;8.52;;;7.63;;
24743;SDS011;12844;52.110;5.548;2022-12-18T06:18:10;10.02;;;8.00;;
24743;SDS011;12844;52.110;5.548;2022-12-18T06:20:36;9.68;;;7.88;;
24743;SDS011;12844;52.110;5.548;2022-12-18T06:23:04;9.80;;;8.25;;
24743;SDS011;12844;52.110;5.548;2022-12-18T06:25:30;9.88;;;7.75;;
24743;SDS011;12844;52.110;5.548;2022-12-18T06:27:57;9.75;;;8.05;;
24743;SDS011;12844;52.110;5.548;2022-12-18T06:30:22;9.10;;;7.75;;
24743;SDS011;12844;52.110;5.548;2022-12-18T06:32:48;9.13;;;7.40;;
24743;SDS011;12844;52.110;5.548;2022-12-18T06:35:14;9.50;;;8.00;;
24743;SDS011;12844;52.110;5.548;2022-12-18T06:37:40;9.45;;;7.72;;
24743;SDS011;12844;52.110;5.548;2022-12-18T06:40:05;8.85;;;7.47;;
24743;SDS011;12844;52.110;5.548;2022-12-18T06:42:31;10.32;;;8.00;;
24743;SDS011;12844;52.110;5.548;2022-12-18T06:44:57;8.82;;;7.70;;
24743;SDS011;12844;52.110;5.548;2022-12-18T06:47:23;8.48;;;7.45;;
24743;SDS011;12844;52.110;5.548;2022-12-18T06:49:48;8.77;;;7.65;;
24743;SDS011;12844;52.110;5.548;2022-12-18T06:52:14;9.85;;;7.75;;
24743;SDS011;12844;52.110;5.548;2022-12-18T06:54:39;9.40;;;7.93;;
24743;SDS011;12844;52.110;5.548;2022-12-18T06:57:05;9.52;;;7.90;;
24743;SDS011;12844;52.110;5.548;2022-12-18T06:59:30;9.25;;;7.45;;
24743;SDS011;12844;52.110;5.548;2022-12-18T07:01:56;8.80;;;7.70;;
24743;SDS011;12844;52.110;5.548;2022-12-18T07:04:21;8.85;;;7.15;;
24743;SDS011;12844;52.110;5.548;2022-12-18T07:06:51;8.32;;;6.75;;
24743;SDS011;12844;52.110;5.548;2022-12-18T07:09:17;8.02;;;7.10;;
24743;SDS011;12844;52.110;5.548;2022-12-18T07:11:42;7.78;;;6.72;;
24743;SDS011;12844;52.110;5.548;2022-12-18T07:14:08;8.10;;;7.03;;
24743;SDS011;12844;52.110;5.548;2022-12-18T07:16:33;7.60;;;6.55;;
24743;SDS011;12844;52.110;5.548;2022-12-18T07:18:59;8.20;;;6.95;;
24743;SDS011;12844;52.110;5.548;2022-12-18T07:21:24;8.32;;;6.88;;
24743;SDS011;12844;52.110;5.548;2022-12-18T07:23:50;8.15;;;6.43;;
24743;SDS011;12844;52.110;5.548;2022-12-18T07:26:16;7.30;;;6.32;;
24743;SDS011;12844;52.110;5.548;2022-12-18T07:28:44;7.35;;;6.07;;
24743;SDS011;12844;52.110;5.548;2022-12-18T07:31:10;8.00;;;6.50;;
24743;SDS011;12844;52.110;5.548;2022-12-18T07:33:38;7.80;;;6.88;;
24743;SDS011;12844;52.110;5.548;2022-12-18T07:36:04;7.95;;;6.53;;
24743;SDS011;12844;52.110;5.548;2022-12-18T07:38:32;7.00;;;6.07;;
24743;SDS011;12844;52.110;5.548;2022-12-18T07:41:02;7.07;;;6.22;;
24743;SDS011;12844;52.110;5.548;2022-12-18T07:43:28;7.57;;;6.57;;
24743;SDS011;12844;52.110;5.548;2022-12-18T07:45:54;8.05;;;6.18;;
24743;SDS011;12844;52.110;5.548;2022-12-18T07:48:19;7.30;;;5.93;;
24743;SDS011;12844;52.110;5.548;2022-12-18T07:50:45;6.97;;;6.20;;
24743;SDS011;12844;52.110;5.548;2022-12-18T07:53:11;6.53;;;5.72;;
24743;SDS011;12844;52.110;5.548;2022-12-18T07:55:36;7.03;;;6.32;;
24743;SDS011;12844;52.110;5.548;2022-12-18T07:58:02;7.03;;;6.07;;
24743;SDS011;12844;52.110;5.548;2022-12-18T08:00:29;7.57;;;5.55;;
24743;SDS011;12844;52.110;5.548;2022-12-18T08:02:55;7.00;;;6.22;;
24743;SDS011;12844;52.110;5.548;2022-12-18T08:05:21;6.85;;;6.15;;
24743;SDS011;12844;52.110;5.548;2022-12-18T08:07:47;6.80;;;5.80;;
24743;SDS011;12844;52.110;5.548;2022-12-18T08:10:12;6.93;;;6.13;;
24743;SDS011;12844;52.110;5.548;2022-12-18T08:12:38;7.63;;;6.40;;
24743;SDS011;12844;52.110;5.548;2022-12-18T08:15:04;7.93;;;6.18;;
24743;SDS011;12844;52.110;5.548;2022-12-18T08:17:30;7.50;;;6.28;;
24743;SDS011;12844;52.110;5.548;2022-12-18T08:19:55;7.30;;;6.18;;
24743;SDS011;12844;52.110;5.548;2022-12-18T08:22:21;6.30;;;5.63;;
24743;SDS011;12844;52.110;5.548;2022-12-18T08:24:46;7.72;;;5.88;;
24743;SDS011;12844;52.110;5.548;2022-12-18T08:27:12;6.40;;;5.60;;
24743;SDS011;12844;52.110;5.548;2022-12-18T08:29:37;6.35;;;5.57;;
24743;SDS011;12844;52.110;5.548;2022-12-18T08:32:03;6.88;;;6.10;;
24743;SDS011;12844;52.110;5.548;2022-12-18T08:34:29;6.22;;;5.55;;
24743;SDS011;12844;52.110;5.548;2022-12-18T08:36:54;6.93;;;5.80;;
24743;SDS011;12844;52.110;5.548;2022-12-18T08:39:20;6.15;;;5.53;;
24743;SDS011;12844;52.110;5.548;2022-12-18T08:41:45;7.43;;;5.75;;
24743;SDS011;12844;52.110;5.548;2022-12-18T08:44:31;8.30;;;5.88;;
24743;SDS011;12844;52.110;5.548;2022-12-18T08:47:02;6.15;;;5.40;;
24743;SDS011;12844;52.110;5.548;2022-12-18T08:49:28;6.32;;;5.72;;
24743;SDS011;12844;52.110;5.548;2022-12-18T08:51:54;6.85;;;5.80;;
24743;SDS011;12844;52.110;5.548;2022-12-18T08:54:22;6.47;;;5.78;;
24743;SDS011;12844;52.110;5.548;2022-12-18T08:56:47;6.47;;;5.70;;
24743;SDS011;12844;52.110;5.548;2022-12-18T08:59:14;6.70;;;5.35;;
24743;SDS011;12844;52.110;5.548;2022-12-18T09:01:40;7.10;;;5.82;;
24743;SDS011;12844;52.110;5.548;2022-12-18T09:04:05;6.47;;;5.60;;
24743;SDS011;12844;52.110;5.548;2022-12-18T09:06:32;6.50;;;5.38;;
24743;SDS011;12844;52.110;5.548;2022-12-18T09:08:58;6.43;;;5.75;;
24743;SDS011;12844;52.110;5.548;2022-12-18T09:11:24;6.15;;;5.10;;
24743;SDS011;12844;52.110;5.548;2022-12-18T09:13:51;6.95;;;5.30;;
24743;SDS011;12844;52.110;5.548;2022-12-18T09:16:17;6.30;;;5.20;;
24743;SDS011;12844;52.110;5.548;2022-12-18T09:18:44;5.78;;;4.90;;
24743;SDS011;12844;52.110;5.548;2022-12-18T09:21:11;5.97;;;5.20;;
24743;SDS011;12844;52.110;5.548;2022-12-18T09:23:38;6.30;;;4.70;;
24743;SDS011;12844;52.110;5.548;2022-12-18T09:26:04;6.82;;;4.72;;
24743;SDS011;12844;52.110;5.548;2022-12-18T09:28:29;9.02;;;4.70;;
24743;SDS011;12844;52.110;5.548;2022-12-18T09:30:55;5.75;;;4.65;;
24743;SDS011;12844;52.110;5.548;2022-12-18T09:33:20;6.15;;;5.07;;
24743;SDS011;12844;52.110;5.548;2022-12-18T09:35:46;8.32;;;5.00;;
24743;SDS011;12844;52.110;5.548;2022-12-18T09:38:15;5.65;;;4.65;;
24743;SDS011;12844;52.110;5.548;2022-12-18T09:40:50;5.47;;;4.60;;
24743;SDS011;12844;52.110;5.548;2022-12-18T09:43:28;5.32;;;4.15;;
24743;SDS011;12844;52.110;5.548;2022-12-18T09:46:01;6.10;;;4.78;;
24743;SDS011;12844;52.110;5.548;2022-12-18T09:48:31;5.53;;;4.35;;
24743;SDS011;12844;52.110;5.548;2022-12-18T09:51:05;8.00;;;4.55;;
24743;SDS011;12844;52.110;5.548;2022-12-18T09:53:40;4.88;;;4.15;;
24743;SDS011;12844;52.110;5.548;2022-12-18T09:56:09;5.30;;;4.25;;
24743;SDS011;12844;52.110;5.548;2022-12-18T09:58:53;5.93;;;4.13;;
24743;SDS011;12844;52.110;5.548;2022-12-18T10:01:23;5.82;;;4.47;;
24743;SDS011;12844;52.110;5.548;2022-12-18T10:03:49;7.18;;;3.97;;
24743;SDS011;12844;52.110;5.548;2022-12-18T10:14:42;6.20;;;4.25;;
24743;SDS011;12844;52.110;5.548;2022-12-18T10:17:41;5.32;;;4.13;;
24743;SDS011;12844;52.110;5.548;2022-12-18T10:25:45;5.53;;;3.95;;
24743;SDS011;12844;52.110;5.548;2022-12-18T10:28:35;6.78;;;4.07;;
24743;SDS011;12844;52.110;5.548;2022-12-18T10:31:02;5.60;;;3.97;;
24743;SDS011;12844;52.110;5.548;2022-12-18T10:33:31;5.93;;;4.07;;
24743;SDS011;12844;52.110;5.548;2022-12-18T10:35:58;6.60;;;4.28;;
24743;SDS011;12844;52.110;5.548;2022-12-18T10:38:26;6.97;;;4.03;;
24743;SDS011;12844;52.110;5.548;2022-12-18T10:41:03;6.93;;;4.00;;
24743;SDS011;12844;52.110;5.548;2022-12-18T10:46:41;4.20;;;3.60;;
24743;SDS011;12844;52.110;5.548;2022-12-18T10:49:17;6.80;;;4.03;;
24743;SDS011;12844;52.110;5.548;2022-12-18T10:51:49;8.00;;;4.13;;
24743;SDS011;12844;52.110;5.548;2022-12-18T10:54:16;5.47;;;3.53;;
24743;SDS011;12844;52.110;5.548;2022-12-18T10:56:49;5.60;;;3.65;;
24743;SDS011;12844;52.110;5.548;2022-12-18T10:59:15;4.45;;;3.72;;
24743;SDS011;12844;52.110;5.548;2022-12-18T11:01:55;6.97;;;3.90;;
24743;SDS011;12844;52.110;5.548;2022-12-18T11:04:32;4.82;;;3.60;;
24743;SDS011;12844;52.110;5.548;2022-12-18T11:07:05;4.82;;;3.72;;
24743;SDS011;12844;52.110;5.548;2022-12-18T11:09:35;6.90;;;3.50;;
24743;SDS011;12844;52.110;5.548;2022-12-18T11:14:42;6.63;;;3.90;;
24743;SDS011;12844;52.110;5.548;2022-12-18T11:17:31;5.28;;;3.53;;
24743;SDS011;12844;52.110;5.548;2022-12-18T11:20:02;6.22;;;3.30;;
24743;SDS011;12844;52.110;5.548;2022-12-18T11:22:39;5.10;;;3.42;;
24743;SDS011;12844;52.110;5.548;2022-12-18T11:25:06;6.57;;;3.65;;
24743;SDS011;12844;52.110;5.548;2022-12-18T11:27:51;5.68;;;3.60;;
24743;SDS011;12844;52.110;5.548;2022-12-18T11:32:45;5.25;;;3.33;;
24743;SDS011;12844;52.110;5.548;2022-12-18T11:35:16;5.70;;;3.42;;
24743;SDS011;12844;52.110;5.548;2022-12-18T11:41:14;6.68;;;3.30;;
24743;SDS011;12844;52.110;5.548;2022-12-18T11:43:47;4.93;;;3.05;;
24743;SDS011;12844;52.110;5.548;2022-12-18T11:46:24;4.30;;;3.10;;
24743;SDS011;12844;52.110;5.548;2022-12-18T11:48:58;4.47;;;3.17;;
24743;SDS011;12844;52.110;5.548;2022-12-18T11:51:33;5.68;;;3.60;;
24743;SDS011;12844;52.110;5.548;2022-12-18T11:54:12;6.40;;;3.38;;
24743;SDS011;12844;52.110;5.548;2022-12-18T11:56:43;5.20;;;3.40;;
24743;SDS011;12844;52.110;5.548;2022-12-18T11:59:30;4.95;;;3.38;;
24743;SDS011;12844;52.110;5.548;2022-12-18T12:05:20;4.53;;;2.97;;
24743;SDS011;12844;52.110;5.548;2022-12-18T12:13:56;4.85;;;3.20;;
24743;SDS011;12844;52.110;5.548;2022-12-18T12:19:19;3.97;;;3.25;;
24743;SDS011;12844;52.110;5.548;2022-12-18T12:22:05;4.70;;;3.33;;
24743;SDS011;12844;52.110;5.548;2022-12-18T12:29:54;5.95;;;3.20;;
24743;SDS011;12844;52.110;5.548;2022-12-18T12:32:32;4.05;;;3.05;;
24743;SDS011;12844;52.110;5.548;2022-12-18T12:40:34;4.75;;;2.85;;
24743;SDS011;12844;52.110;5.548;2022-12-18T12:43:04;4.90;;;3.38;;
24743;SDS011;12844;52.110;5.548;2022-12-18T12:45:50;3.83;;;3.00;;
24743;SDS011;12844;52.110;5.548;2022-12-18T12:48:19;5.40;;;3.25;;
24743;SDS011;12844;52.110;5.548;2022-12-18T12:50:47;4.68;;;3.10;;
24743;SDS011;12844;52.110;5.548;2022-12-18T12:53:25;5.35;;;3.33;;
24743;SDS011;12844;52.110;5.548;2022-12-18T12:55:58;4.80;;;3.20;;
24743;SDS011;12844;52.110;5.548;2022-12-18T12:58:43;4.53;;;3.08;;
24743;SDS011;12844;52.110;5.548;2022-12-18T13:01:37;6.20;;;3.22;;
24743;SDS011;12844;52.110;5.548;2022-12-18T13:07:13;5.72;;;3.65;;
24743;SDS011;12844;52.110;5.548;2022-12-18T13:15:42;7.93;;;3.63;;
24743;SDS011;12844;52.110;5.548;2022-12-18T13:23:27;6.82;;;3.95;;
24743;SDS011;12844;52.110;5.548;2022-12-18T13:26:44;8.02;;;3.92;;
24743;SDS011;12844;52.110;5.548;2022-12-18T13:31:11;7.57;;;3.85;;
24743;SDS011;12844;52.110;5.548;2022-12-18T13:36:15;10.23;;;4.03;;
24743;SDS011;12844;52.110;5.548;2022-12-18T13:38:46;11.70;;;4.22;;
24743;SDS011;12844;52.110;5.548;2022-12-18T13:43:49;9.27;;;4.53;;
24743;SDS011;12844;52.110;5.548;2022-12-18T13:46:23;8.68;;;4.05;;
24743;SDS011;12844;52.110;5.548;2022-12-18T13:51:40;7.50;;;4.07;;
24743;SDS011;12844;52.110;5.548;2022-12-18T13:54:21;8.63;;;4.28;;
24743;SDS011;12844;52.110;5.548;2022-12-18T13:56:49;6.25;;;3.95;;
24743;SDS011;12844;52.110;5.548;2022-12-18T14:01:52;9.68;;;4.10;;
24743;SDS011;12844;52.110;5.548;2022-12-18T14:04:19;9.88;;;4.80;;
24743;SDS011;12844;52.110;5.548;2022-12-18T14:06:58;6.55;;;3.85;;
24743;SDS011;12844;52.110;5.548;2022-12-18T14:09:42;8.32;;;4.28;;
24743;SDS011;12844;52.110;5.548;2022-12-18T14:12:18;10.60;;;4.28;;
24743;SDS011;12844;52.110;5.548;2022-12-18T14:15:32;11.38;;;4.50;;
24743;SDS011;12844;52.110;5.548;2022-12-18T14:20:26;10.15;;;4.35;;
24743;SDS011;12844;52.110;5.548;2022-12-18T14:22:53;8.65;;;4.78;;
24743;SDS011;12844;52.110;5.548;2022-12-18T14:25:22;10.35;;;4.65;;
24743;SDS011;12844;52.110;5.548;2022-12-18T14:27:52;9.80;;;4.90;;
24743;SDS011;12844;52.110;5.548;2022-12-18T14:30:31;12.45;;;4.38;;
24743;SDS011;12844;52.110;5.548;2022-12-18T14:33:01;11.43;;;4.20;;
24743;SDS011;12844;52.110;5.548;2022-12-18T14:35:33;7.50;;;4.28;;
24743;SDS011;12844;52.110;5.548;2022-12-18T14:40:41;13.23;;;4.70;;
24743;SDS011;12844;52.110;5.548;2022-12-18T14:43:10;19.35;;;5.35;;
24743;SDS011;12844;52.110;5.548;2022-12-18T14:45:37;12.45;;;5.00;;
24743;SDS011;12844;52.110;5.548;2022-12-18T14:48:52;17.10;;;5.20;;
24743;SDS011;12844;52.110;5.548;2022-12-18T14:50:57;17.42;;;4.70;;
24743;SDS011;12844;52.110;5.548;2022-12-18T14:53:32;12.07;;;4.38;;
24743;SDS011;12844;52.110;5.548;2022-12-18T14:55:58;10.75;;;4.65;;
24743;SDS011;12844;52.110;5.548;2022-12-18T14:58:25;10.73;;;3.97;;
24743;SDS011;12844;52.110;5.548;2022-12-18T15:00:51;8.48;;;3.85;;
24743;SDS011;12844;52.110;5.548;2022-12-18T15:03:20;11.45;;;4.20;;
24743;SDS011;12844;52.110;5.548;2022-12-18T15:05:46;11.93;;;4.07;;
24743;SDS011;12844;52.110;5.548;2022-12-18T15:16:56;10.40;;;4.80;;
24743;SDS011;12844;52.110;5.548;2022-12-18T15:19:25;8.57;;;4.63;;
24743;SDS011;12844;52.110;5.548;2022-12-18T15:22:03;7.90;;;4.80;;
24743;SDS011;12844;52.110;5.548;2022-12-18T15:24:30;12.52;;;4.80;;
24743;SDS011;12844;52.110;5.548;2022-12-18T15:26:57;11.30;;;4.53;;
24743;SDS011;12844;52.110;5.548;2022-12-18T15:29:23;9.60;;;4.45;;
24743;SDS011;12844;52.110;5.548;2022-12-18T15:32:10;8.02;;;4.47;;
24743;SDS011;12844;52.110;5.548;2022-12-18T15:34:44;8.98;;;4.63;;
24743;SDS011;12844;52.110;5.548;2022-12-18T15:37:09;10.65;;;3.88;;
24743;SDS011;12844;52.110;5.548;2022-12-18T15:39:35;7.65;;;3.97;;
24743;SDS011;12844;52.110;5.548;2022-12-18T15:42:01;14.07;;;5.28;;
24743;SDS011;12844;52.110;5.548;2022-12-18T15:44:45;10.93;;;4.40;;
24743;SDS011;12844;52.110;5.548;2022-12-18T15:47:11;8.38;;;4.28;;
24743;SDS011;12844;52.110;5.548;2022-12-18T15:49:37;11.07;;;4.18;;
24743;SDS011;12844;52.110;5.548;2022-12-18T15:52:04;12.02;;;4.50;;
24743;SDS011;12844;52.110;5.548;2022-12-18T15:54:30;10.35;;;4.60;;
24743;SDS011;12844;52.110;5.548;2022-12-18T15:57:14;11.32;;;4.22;;
24743;SDS011;12844;52.110;5.548;2022-12-18T15:59:49;7.35;;;4.35;;
24743;SDS011;12844;52.110;5.548;2022-12-18T16:02:22;9.70;;;4.20;;
24743;SDS011;12844;52.110;5.548;2022-12-18T16:04:49;9.75;;;4.22;;
24743;SDS011;12844;52.110;5.548;2022-12-18T16:07:16;8.00;;;4.32;;
24743;SDS011;12844;52.110;5.548;2022-12-18T16:09:41;9.75;;;4.22;;
24743;SDS011;12844;52.110;5.548;2022-12-18T16:12:11;7.07;;;3.83;;
24743;SDS011;12844;52.110;5.548;2022-12-18T16:14:41;11.75;;;4.60;;
24743;SDS011;12844;52.110;5.548;2022-12-18T16:17:09;6.57;;;4.50;;
24743;SDS011;12844;52.110;5.548;2022-12-18T16:19:35;8.50;;;3.90;;
24743;SDS011;12844;52.110;5.548;2022-12-18T16:22:01;6.53;;;3.90;;
24743;SDS011;12844;52.110;5.548;2022-12-18T16:24:27;8.35;;;4.45;;
24743;SDS011;12844;52.110;5.548;2022-12-18T16:26:55;12.15;;;4.20;;
24743;SDS011;12844;52.110;5.548;2022-12-18T16:29:23;8.15;;;4.55;;
24743;SDS011;12844;52.110;5.548;2022-12-18T16:31:52;7.50;;;4.43;;
24743;SDS011;12844;52.110;5.548;2022-12-18T16:34:22;7.25;;;4.60;;
24743;SDS011;12844;52.110;5.548;2022-12-18T16:36:51;9.57;;;4.60;;
24743;SDS011;12844;52.110;5.548;2022-12-18T16:39:18;7.55;;;4.60;;
24743;SDS011;12844;52.110;5.548;2022-12-18T16:41:45;7.20;;;4.88;;
24743;SDS011;12844;52.110;5.548;2022-12-18T16:44:11;8.93;;;4.75;;